EmailTwitter


Observations de surface / Québec / EGSC

Régions: Québec | Canada | États-Unis | Europe | France | UK | Ailleurs
Station
Affichage
Infos & localisation pour EGSC | Aide pour décoder les METARs

Observations prises le 2017-09-26 à 16H20 UTC à CAMBRIDGE, UK (EGSC)

Etat du ciel: quelques nuages.

Température: 17.0 Celsius

Point de rosée: 14.0 Celsius

Humidité relative: 82%

Vents: Variable à 6 km/h ou 3 noeuds.

Pression au niveau moyen de la mer: 102.20 kilopascals.

Visibilité horizontale: 4.97 milles terrestres ou 7.95 kilomètres.

Observation METAR:

EGSC 261620Z VRB03KT 8000 FEW045 17/14 Q1022=